Time;durP1;ratioP1;P1;durP2;ratioP2;P2;SDS_P1;SDS_P2;PMS_P1;PMS_P2;Temp;Humidity;BMP_temperature;BMP_pressure;BME280_temperature;BME280_humidity;BME280_pressure;Samples;Min_cycle;Max_cycle;Signal;HPM_P1;HPM_P2
2021/10/03 00:00:22;;;;;;;1.42;0.95;;;17.90;99.90;;;;;;4174522;28;20041;-75
2021/10/03 00:02:23;;;;;;;1.30;1.10;;;17.90;99.90;;;;;;4176995;28;20029;-75
2021/10/03 00:04:27;;;;;;;1.75;1.10;;;17.90;99.90;;;;;;4177041;28;20503;-75
2021/10/03 00:06:28;;;;;;;6.60;1.02;;;17.90;99.90;;;;;;4175559;28;20141;-75
2021/10/03 00:08:29;;;;;;;0.98;0.85;;;17.90;99.90;;;;;;4182526;28;20025;-76
2021/10/03 00:10:29;;;;;;;1.25;1.00;;;17.80;99.90;;;;;;4178611;28;20853;-75
2021/10/03 00:12:30;;;;;;;1.58;1.05;;;17.80;99.90;;;;;;4182212;28;20048;-75
2021/10/03 00:14:31;;;;;;;1.52;0.70;;;17.70;99.90;;;;;;4177759;28;20040;-75
2021/10/03 00:16:31;;;;;;;1.50;0.93;;;17.70;99.90;;;;;;4182251;28;20036;-76
2021/10/03 00:18:32;;;;;;;2.00;1.30;;;17.70;99.90;;;;;;4179692;28;20047;-76
2021/10/03 00:20:34;;;;;;;1.65;1.00;;;17.60;99.90;;;;;;4180071;28;20104;-76
2021/10/03 00:22:35;;;;;;;1.23;1.10;;;17.60;99.90;;;;;;4179618;28;20159;-76
2021/10/03 00:24:36;;;;;;;1.30;1.10;;;17.60;99.90;;;;;;4177695;28;20044;-75
2021/10/03 00:26:37;;;;;;;2.25;1.35;;;17.60;99.90;;;;;;4176261;28;20040;-75
2021/10/03 00:28:37;;;;;;;2.50;1.13;;;17.60;99.90;;;;;;4180578;28;21603;-74
2021/10/03 00:30:40;;;;;;;1.13;0.90;;;17.50;99.90;;;;;;4174096;28;20162;-75
2021/10/03 00:32:41;;;;;;;1.30;0.80;;;17.60;99.90;;;;;;4180152;28;20485;-75
2021/10/03 00:34:42;;;;;;;2.97;1.05;;;17.50;99.90;;;;;;4182707;28;20035;-75
2021/10/03 00:36:43;;;;;;;1.13;0.93;;;17.60;99.90;;;;;;4178515;28;20428;-74
2021/10/03 00:38:43;;;;;;;1.00;0.90;;;17.60;99.90;;;;;;4179375;28;20686;-75
2021/10/03 00:40:45;;;;;;;3.13;1.30;;;17.60;99.90;;;;;;4181224;28;20037;-75
2021/10/03 00:42:46;;;;;;;1.07;0.93;;;17.60;99.90;;;;;;4177120;28;20059;-75
2021/10/03 00:44:47;;;;;;;2.13;0.73;;;17.60;99.90;;;;;;4177953;28;20031;-74
2021/10/03 00:46:48;;;;;;;1.05;0.77;;;17.60;99.90;;;;;;4181910;28;20593;-75
2021/10/03 00:48:49;;;;;;;1.13;0.75;;;17.60;99.90;;;;;;4179444;28;20422;-75
2021/10/03 00:50:50;;;;;;;2.75;0.88;;;17.60;99.90;;;;;;4178716;28;20082;-74
2021/10/03 00:52:51;;;;;;;1.30;0.98;;;17.60;99.90;;;;;;4179543;28;20044;-74
2021/10/03 00:54:52;;;;;;;0.73;0.60;;;17.60;99.90;;;;;;4178656;28;20033;-75
2021/10/03 00:56:52;;;;;;;1.30;0.90;;;17.60;99.90;;;;;;4176121;28;20048;-75
2021/10/03 00:58:53;;;;;;;0.85;0.70;;;17.60;99.90;;;;;;4179931;28;20068;-75
2021/10/03 01:00:54;;;;;;;0.88;0.80;;;17.60;99.90;;;;;;4182681;28;20041;-75
2021/10/03 01:02:57;;;;;;;0.80;0.70;;;17.70;99.90;;;;;;4161710;28;20025;-75
2021/10/03 01:04:57;;;;;;;1.88;1.10;;;17.70;99.90;;;;;;4176599;28;20593;-75
2021/10/03 01:06:58;;;;;;;1.52;0.75;;;17.70;99.90;;;;;;4174743;28;20061;-75
2021/10/03 01:08:58;;;;;;;0.60;0.60;;;17.70;99.90;;;;;;4176679;28;20033;-75
2021/10/03 01:10:59;;;;;;;1.42;0.75;;;17.70;99.90;;;;;;4177309;28;20064;-74
2021/10/03 01:13:14;;;;;;;0.70;0.65;;;17.70;99.90;;;;;;4177797;28;20048;-75
2021/10/03 01:15:15;;;;;;;1.58;0.90;;;17.70;99.90;;;;;;4180789;28;20052;-75
2021/10/03 01:17:15;;;;;;;0.63;0.60;;;17.70;99.90;;;;;;4183937;28;20021;-75
2021/10/03 01:19:18;;;;;;;0.60;0.52;;;17.70;99.90;;;;;;4181077;28;20048;-75
2021/10/03 01:21:18;;;;;;;0.68;0.68;;;17.70;99.90;;;;;;4168293;28;20045;-75
2021/10/03 01:23:44;;;;;;;3.50;0.73;;;17.70;99.90;;;;;;4185781;28;20036;-75
2021/10/03 01:25:47;;;;;;;1.17;0.70;;;17.70;99.90;;;;;;4173161;28;20037;-75
2021/10/03 01:27:49;;;;;;;0.60;0.55;;;17.80;99.90;;;;;;4175020;28;20476;-75
2021/10/03 01:29:50;;;;;;;0.85;0.63;;;17.80;99.90;;;;;;4173736;28;20831;-75
2021/10/03 01:31:51;;;;;;;1.85;0.90;;;17.80;99.90;;;;;;4172141;28;20033;-75
2021/10/03 01:33:52;;;;;;;0.95;0.55;;;17.80;99.90;;;;;;4173498;28;20099;-75
2021/10/03 01:35:53;;;;;;;0.85;0.80;;;17.90;99.90;;;;;;4175148;28;20030;-75
2021/10/03 01:37:54;;;;;;;0.73;0.63;;;17.80;99.90;;;;;;4173053;28;20083;-75
2021/10/03 01:39:55;;;;;;;0.55;0.52;;;17.90;99.90;;;;;;4175794;28;20067;-75
2021/10/03 01:41:56;;;;;;;1.95;0.68;;;17.90;99.90;;;;;;4174498;28;20021;-75
2021/10/03 01:43:56;;;;;;;0.77;0.60;;;17.90;99.90;;;;;;4172604;28;20645;-75
2021/10/03 01:45:57;;;;;;;0.73;0.70;;;17.90;99.90;;;;;;4173744;28;20096;-74
2021/10/03 01:48:07;;;;;;;3.47;0.70;;;17.90;99.90;;;;;;4173499;28;20082;-75
2021/10/03 01:50:08;;;;;;;2.58;0.80;;;17.90;99.90;;;;;;4173521;28;20492;-75
2021/10/03 01:52:08;;;;;;;2.88;0.82;;;17.90;99.90;;;;;;4174267;28;20088;-75
2021/10/03 01:54:09;;;;;;;1.75;0.98;;;17.90;99.90;;;;;;4174162;28;20036;-75
2021/10/03 01:56:11;;;;;;;1.33;0.80;;;17.90;99.90;;;;;;4176018;28;20039;-75
2021/10/03 01:58:13;;;;;;;0.50;0.50;;;17.90;99.90;;;;;;4177721;28;20068;-75
2021/10/03 02:00:14;;;;;;;1.00;0.60;;;17.90;99.90;;;;;;4170710;28;20045;-75
2021/10/03 02:02:15;;;;;;;1.67;0.70;;;17.90;99.90;;;;;;4173348;28;20025;-76
2021/10/03 02:04:19;;;;;;;1.40;0.90;;;17.90;99.90;;;;;;4174889;28;20017;-75
2021/10/03 02:06:21;;;;;;;0.57;0.50;;;17.90;99.90;;;;;;4175842;28;20025;-76
2021/10/03 02:08:21;;;;;;;1.67;0.68;;;17.90;99.90;;;;;;4176790;28;20063;-76
2021/10/03 02:10:25;;;;;;;1.48;0.80;;;17.90;99.90;;;;;;4175340;28;20029;-76
2021/10/03 02:12:26;;;;;;;0.73;0.65;;;17.90;99.90;;;;;;4172612;28;20029;-76
2021/10/03 02:14:31;;;;;;;1.70;0.93;;;17.90;99.90;;;;;;4176713;28;20119;-76
2021/10/03 02:16:31;;;;;;;1.17;0.65;;;17.90;99.90;;;;;;4174227;28;20048;-75
2021/10/03 02:18:37;;;;;;;0.98;0.52;;;17.90;99.90;;;;;;4166025;28;20033;-75
2021/10/03 02:20:38;;;;;;;1.52;0.82;;;17.90;99.90;;;;;;4172614;28;20060;-75
2021/10/03 02:22:39;;;;;;;0.75;0.60;;;17.90;99.90;;;;;;4175609;28;20041;-75
2021/10/03 02:24:39;;;;;;;1.08;0.90;;;17.80;99.90;;;;;;4174814;28;20025;-75
2021/10/03 02:26:40;;;;;;;3.15;1.08;;;17.90;99.90;;;;;;4173058;28;20032;-75
2021/10/03 02:28:40;;;;;;;2.25;1.05;;;17.90;99.90;;;;;;4174674;28;20295;-75
2021/10/03 02:30:42;;;;;;;0.85;0.85;;;17.90;99.90;;;;;;4173698;28;20750;-75
2021/10/03 02:32:43;;;;;;;1.85;1.02;;;17.90;99.90;;;;;;4175101;28;20025;-75
2021/10/03 02:34:44;;;;;;;1.00;0.88;;;18.00;99.90;;;;;;4174699;28;20381;-75
2021/10/03 02:36:44;;;;;;;1.10;0.60;;;18.00;99.90;;;;;;4174454;28;20033;-75
2021/10/03 02:38:45;;;;;;;2.25;0.70;;;18.00;99.90;;;;;;4173630;28;20037;-75
2021/10/03 02:40:48;;;;;;;3.15;0.68;;;18.00;99.90;;;;;;4173052;28;20045;-75
2021/10/03 02:42:48;;;;;;;2.72;0.80;;;18.00;99.90;;;;;;4172536;28;20028;-75
2021/10/03 02:44:49;;;;;;;1.08;0.80;;;18.10;99.90;;;;;;4173624;28;20135;-75
2021/10/03 02:46:50;;;;;;;1.25;0.80;;;18.10;99.90;;;;;;4175299;28;20103;-75
2021/10/03 02:48:51;;;;;;;2.08;1.02;;;18.10;99.90;;;;;;4172502;28;20113;-75
2021/10/03 02:50:53;;;;;;;0.55;0.55;;;18.10;99.90;;;;;;4172283;28;20040;-75
2021/10/03 02:52:53;;;;;;;2.92;0.90;;;18.10;99.90;;;;;;4170325;28;20094;-75
2021/10/03 02:54:54;;;;;;;1.30;1.00;;;18.10;99.90;;;;;;4170929;28;20504;-75
2021/10/03 02:56:54;;;;;;;1.20;1.08;;;18.10;99.90;;;;;;4174812;28;20091;-75
2021/10/03 02:58:55;;;;;;;7.28;0.80;;;18.00;99.90;;;;;;4174553;28;20056;-75
2021/10/03 03:00:57;;;;;;;1.23;0.90;;;18.10;99.90;;;;;;4172481;28;20077;-75
2021/10/03 03:02:58;;;;;;;1.98;0.90;;;18.10;99.90;;;;;;4173039;28;20132;-75
2021/10/03 03:04:58;;;;;;;9.88;1.02;;;18.10;99.90;;;;;;4174783;28;20580;-75
2021/10/03 03:06:59;;;;;;;1.50;1.13;;;18.00;99.90;;;;;;4172971;28;20693;-75
2021/10/03 03:08:59;;;;;;;1.00;0.88;;;18.00;99.90;;;;;;4175247;28;20037;-75
2021/10/03 03:11:01;;;;;;;1.83;0.90;;;18.00;99.90;;;;;;4168799;28;20117;-76
2021/10/03 03:13:02;;;;;;;2.13;1.27;;;17.90;99.90;;;;;;4172148;28;20026;-75
2021/10/03 03:15:06;;;;;;;2.05;1.30;;;17.90;99.90;;;;;;4173803;28;20032;-75
2021/10/03 03:17:18;;;;;;;1.90;1.15;;;17.90;99.90;;;;;;4173964;28;20742;-75
2021/10/03 03:19:19;;;;;;;4.40;1.60;;;17.90;99.90;;;;;;4174457;28;20159;-75
2021/10/03 03:21:20;;;;;;;2.75;1.55;;;17.90;99.90;;;;;;4187124;28;20064;-75
2021/10/03 03:23:21;;;;;;;2.28;1.48;;;17.90;99.90;;;;;;4175682;28;20025;-75
2021/10/03 03:25:21;;;;;;;2.45;1.38;;;17.90;99.90;;;;;;4177561;28;20061;-75
2021/10/03 03:27:22;;;;;;;1.50;1.25;;;17.80;99.90;;;;;;4179661;28;20734;-75
2021/10/03 03:29:23;;;;;;;1.90;1.70;;;17.80;99.90;;;;;;4175866;28;20056;-75
2021/10/03 03:31:23;;;;;;;2.25;1.40;;;17.80;99.90;;;;;;4173181;28;20045;-76
2021/10/03 03:33:24;;;;;;;2.17;1.65;;;17.80;99.90;;;;;;4173630;28;20064;-75
2021/10/03 03:35:25;;;;;;;2.70;1.50;;;17.90;99.90;;;;;;4170938;28;20112;-75
2021/10/03 03:37:26;;;;;;;5.43;1.70;;;17.80;99.90;;;;;;4172745;28;20087;-75
2021/10/03 03:39:26;;;;;;;3.15;1.52;;;17.80;99.90;;;;;;4174053;28;20431;-75
2021/10/03 03:41:27;;;;;;;4.70;1.85;;;17.80;99.90;;;;;;4175906;28;20037;-75
2021/10/03 03:43:27;;;;;;;2.13;1.75;;;17.80;99.90;;;;;;4172615;28;20033;-75
2021/10/03 03:45:28;;;;;;;2.97;1.63;;;17.80;99.90;;;;;;4177256;28;20124;-74
2021/10/03 03:47:29;;;;;;;4.47;1.98;;;17.80;99.90;;;;;;4175653;28;20029;-75
2021/10/03 03:49:29;;;;;;;2.17;1.67;;;17.80;99.90;;;;;;4177064;28;20040;-75
2021/10/03 03:51:30;;;;;;;4.22;2.35;;;17.80;99.90;;;;;;4176153;28;20124;-75
2021/10/03 03:53:32;;;;;;;3.30;1.83;;;17.80;99.90;;;;;;4174815;28;20036;-75
2021/10/03 03:55:33;;;;;;;3.35;2.30;;;17.80;99.90;;;;;;4176313;28;20047;-75
2021/10/03 03:57:33;;;;;;;4.63;2.20;;;17.80;99.90;;;;;;4174447;28;20041;-75
2021/10/03 03:59:34;;;;;;;3.35;2.13;;;17.80;99.90;;;;;;4175703;28;20037;-75
2021/10/03 04:01:34;;;;;;;4.13;2.40;;;17.70;99.90;;;;;;4174061;28;20037;-75
2021/10/03 04:03:36;;;;;;;3.42;2.20;;;17.70;99.90;;;;;;4177283;28;20068;-75
2021/10/03 04:05:37;;;;;;;7.15;2.38;;;17.70;99.90;;;;;;4176581;28;20036;-75
2021/10/03 04:07:38;;;;;;;3.17;2.40;;;17.70;99.90;;;;;;4172243;28;20036;-75
2021/10/03 04:09:38;;;;;;;6.03;2.63;;;17.70;99.90;;;;;;4177602;28;20714;-75
2021/10/03 04:11:39;;;;;;;3.00;2.20;;;17.60;99.90;;;;;;4175405;28;20103;-76
2021/10/03 04:13:40;;;;;;;4.95;2.55;;;17.60;99.90;;;;;;4176953;28;20029;-76
2021/10/03 04:15:41;;;;;;;5.13;2.40;;;17.60;99.90;;;;;;4177008;28;20044;-76
2021/10/03 04:17:42;;;;;;;2.83;2.13;;;17.60;99.90;;;;;;4176321;28;20029;-76
2021/10/03 04:19:42;;;;;;;3.00;2.20;;;17.50;99.90;;;;;;4176191;28;20036;-76
2021/10/03 04:21:43;;;;;;;8.27;2.90;;;17.50;99.90;;;;;;4175840;28;20021;-76
2021/10/03 04:23:44;;;;;;;8.20;2.90;;;17.40;99.90;;;;;;4176011;28;20056;-76
2021/10/03 04:25:45;;;;;;;8.35;2.88;;;17.50;99.90;;;;;;4174889;28;20036;-76
2021/10/03 04:27:46;;;;;;;3.05;2.13;;;17.40;99.90;;;;;;4175312;28;20048;-76
2021/10/03 04:29:47;;;;;;;4.75;3.22;;;17.40;99.90;;;;;;4173431;28;20017;-75
2021/10/03 04:31:47;;;;;;;6.68;3.13;;;17.40;99.90;;;;;;4176374;28;20035;-75
2021/10/03 04:33:48;;;;;;;4.18;2.70;;;17.40;99.90;;;;;;4173530;28;20029;-75
2021/10/03 04:35:48;;;;;;;5.13;2.80;;;17.40;99.90;;;;;;4175888;28;20031;-75
2021/10/03 04:37:49;;;;;;;6.10;2.70;;;17.40;99.90;;;;;;4186102;28;20022;-75
2021/10/03 04:39:50;;;;;;;4.30;2.50;;;17.40;99.90;;;;;;4183339;28;20094;-75
2021/10/03 04:41:51;;;;;;;3.85;2.42;;;17.30;99.90;;;;;;4183767;28;20052;-75
2021/10/03 04:43:53;;;;;;;3.58;2.58;;;17.40;99.90;;;;;;4185740;28;20050;-75
2021/10/03 04:45:53;;;;;;;4.15;2.63;;;17.30;99.90;;;;;;4183970;28;20614;-75
2021/10/03 04:47:54;;;;;;;4.18;2.88;;;17.40;99.90;;;;;;4177976;28;20044;-75
2021/10/03 04:49:56;;;;;;;5.78;2.90;;;17.30;99.90;;;;;;4178698;28;20033;-76
2021/10/03 04:51:57;;;;;;;3.13;2.28;;;17.40;99.90;;;;;;4157724;28;20040;-74
2021/10/03 04:53:58;;;;;;;5.75;2.85;;;17.40;99.90;;;;;;4158340;28;20089;-76
2021/10/03 04:55:59;;;;;;;7.45;2.90;;;17.40;99.90;;;;;;4157046;28;20057;-75
2021/10/03 04:58:00;;;;;;;4.25;2.33;;;17.30;99.90;;;;;;4159576;28;20048;-75
2021/10/03 05:00:00;;;;;;;4.30;2.53;;;17.30;99.90;;;;;;4158314;28;20021;-75
2021/10/03 05:02:01;;;;;;;7.35;3.30;;;17.30;99.90;;;;;;4158165;28;20033;-75
2021/10/03 05:04:02;;;;;;;3.33;2.63;;;17.30;99.90;;;;;;4156723;28;20688;-75
2021/10/03 05:06:03;;;;;;;5.15;2.85;;;17.30;99.90;;;;;;4157667;28;20440;-75
2021/10/03 05:08:04;;;;;;;4.40;3.10;;;17.30;99.90;;;;;;4139977;28;20022;-75
2021/10/03 05:10:05;;;;;;;5.22;2.90;;;17.30;99.90;;;;;;4153234;28;20513;-75
2021/10/03 05:12:07;;;;;;;3.75;2.72;;;17.30;99.90;;;;;;4159634;28;20037;-75
2021/10/03 05:14:08;;;;;;;9.02;3.20;;;17.40;99.90;;;;;;4158969;28;20044;-75
2021/10/03 05:16:08;;;;;;;5.47;3.17;;;17.40;99.90;;;;;;4158858;28;20568;-75
2021/10/03 05:18:12;;;;;;;3.90;2.70;;;17.40;99.90;;;;;;4156147;28;20046;-76
2021/10/03 05:20:13;;;;;;;4.45;2.88;;;17.40;99.90;;;;;;4148113;28;20037;-76
2021/10/03 05:22:13;;;;;;;4.82;3.45;;;17.40;99.90;;;;;;4153736;28;20087;-75
2021/10/03 05:24:14;;;;;;;6.43;3.40;;;17.40;99.90;;;;;;4150515;28;20044;-75
2021/10/03 05:26:14;;;;;;;4.80;3.45;;;17.40;99.90;;;;;;4157420;28;20517;-75
2021/10/03 05:28:15;;;;;;;5.50;3.50;;;17.40;99.90;;;;;;4156857;28;20040;-75
2021/10/03 05:30:16;;;;;;;8.23;3.58;;;17.40;99.90;;;;;;4158428;28;20474;-75
2021/10/03 05:32:16;;;;;;;8.68;3.53;;;17.40;99.90;;;;;;4156803;28;20044;-75
2021/10/03 05:34:19;;;;;;;4.35;3.20;;;17.40;99.90;;;;;;4155558;28;20041;-75
2021/10/03 05:36:20;;;;;;;6.18;3.60;;;17.40;99.90;;;;;;4160374;28;20036;-76
2021/10/03 05:38:20;;;;;;;4.22;3.47;;;17.40;99.90;;;;;;4157275;28;20037;-75
2021/10/03 05:40:21;;;;;;;6.18;3.75;;;17.40;99.90;;;;;;4156791;28;20369;-75
2021/10/03 05:42:22;;;;;;;5.60;3.53;;;17.50;99.90;;;;;;4159320;28;22034;-76
2021/10/03 05:44:22;;;;;;;10.40;3.83;;;17.50;99.90;;;;;;4159086;28;20041;-75
2021/10/03 05:46:23;;;;;;;7.80;4.15;;;17.50;99.90;;;;;;4158614;28;20026;-75
2021/10/03 05:48:24;;;;;;;9.13;4.40;;;17.50;99.90;;;;;;4157369;28;20044;-76
2021/10/03 05:50:24;;;;;;;6.97;3.40;;;17.50;99.90;;;;;;4156819;28;20037;-75
2021/10/03 05:52:25;;;;;;;5.30;3.55;;;17.40;99.90;;;;;;4156160;28;20087;-76
2021/10/03 05:54:26;;;;;;;6.45;3.67;;;17.50;99.90;;;;;;4158768;28;20120;-75
2021/10/03 05:56:26;;;;;;;6.45;4.00;;;17.50;99.90;;;;;;4159015;28;20033;-76
2021/10/03 05:58:27;;;;;;;6.78;4.47;;;17.40;99.90;;;;;;4158634;28;20038;-76
2021/10/03 06:00:28;;;;;;;5.93;3.72;;;17.40;99.90;;;;;;4158655;28;20042;-76
2021/10/03 06:02:28;;;;;;;6.47;4.32;;;17.40;99.90;;;;;;4159940;28;20029;-75
2021/10/03 06:04:29;;;;;;;8.60;4.45;;;17.40;99.90;;;;;;4157415;28;20045;-76
2021/10/03 06:06:30;;;;;;;8.48;4.13;;;17.30;99.90;;;;;;4157796;28;20508;-75
2021/10/03 06:08:30;;;;;;;5.60;3.95;;;17.30;99.90;;;;;;4157735;28;20103;-75
2021/10/03 06:10:31;;;;;;;7.82;3.90;;;17.40;99.90;;;;;;4158789;28;20060;-76
2021/10/03 06:12:31;;;;;;;8.48;4.43;;;17.30;99.90;;;;;;4159182;28;20045;-76
2021/10/03 06:14:35;;;;;;;6.03;3.90;;;17.30;99.90;;;;;;4160471;28;20521;-76
2021/10/03 06:16:36;;;;;;;5.78;4.07;;;17.30;99.90;;;;;;4159516;28;20477;-76
2021/10/03 06:18:36;;;;;;;5.97;4.05;;;17.30;99.90;;;;;;4156487;28;20033;-76
2021/10/03 06:20:37;;;;;;;10.07;4.22;;;17.30;99.90;;;;;;4159072;28;20041;-76
2021/10/03 06:22:40;;;;;;;5.72;3.78;;;17.30;99.90;;;;;;4158725;28;20041;-76
2021/10/03 06:24:41;;;;;;;6.22;4.20;;;17.30;99.90;;;;;;4157352;28;20052;-76
2021/10/03 06:26:43;;;;;;;7.57;4.55;;;17.20;99.90;;;;;;4160218;28;20033;-76
2021/10/03 06:28:45;;;;;;;9.55;4.65;;;17.20;99.90;;;;;;4160307;28;20456;-75
2021/10/03 06:30:45;;;;;;;7.07;4.43;;;17.20;99.90;;;;;;4159212;28;20029;-76
2021/10/03 06:32:46;;;;;;;8.40;5.10;;;17.20;99.90;;;;;;4157455;28;20063;-75
2021/10/03 06:34:49;;;;;;;6.40;4.13;;;17.20;99.90;;;;;;4160082;28;20041;-75
2021/10/03 06:36:49;;;;;;;8.02;4.13;;;17.20;99.90;;;;;;4157389;28;20029;-75
2021/10/03 06:38:50;;;;;;;6.53;4.68;;;17.20;99.90;;;;;;4172206;28;20044;-76
2021/10/03 06:40:50;;;;;;;7.90;4.60;;;17.10;99.90;;;;;;4173388;28;20033;-76
2021/10/03 06:42:51;;;;;;;6.85;4.10;;;17.10;99.90;;;;;;4175549;28;20033;-76
2021/10/03 06:44:52;;;;;;;6.22;4.30;;;17.20;99.90;;;;;;4175888;28;20503;-76
2021/10/03 06:46:52;;;;;;;12.52;4.57;;;17.20;99.90;;;;;;4175052;28;20045;-75
2021/10/03 06:48:53;;;;;;;9.40;4.88;;;17.10;99.90;;;;;;4174246;28;20424;-75
2021/10/03 06:50:54;;;;;;;6.82;4.22;;;17.10;99.90;;;;;;4174089;28;20041;-77
2021/10/03 06:52:54;;;;;;;6.57;4.80;;;17.10;99.90;;;;;;4171858;28;20075;-77
2021/10/03 06:54:55;;;;;;;7.03;4.72;;;17.10;99.90;;;;;;4171656;28;20029;-77
2021/10/03 06:56:55;;;;;;;7.85;4.95;;;17.10;99.90;;;;;;4171769;28;20045;-76
2021/10/03 06:59:04;;;;;;;14.25;5.10;;;17.10;99.90;;;;;;4157246;28;20041;-76
2021/10/03 07:01:05;;;;;;;6.65;4.72;;;17.10;99.90;;;;;;4176352;28;20087;-77
2021/10/03 07:03:06;;;;;;;6.47;4.55;;;17.10;99.90;;;;;;4177722;28;20032;-77
2021/10/03 07:05:09;;;;;;;10.70;5.93;;;17.10;99.90;;;;;;4174659;28;20097;-76
2021/10/03 07:07:10;;;;;;;;;;;17.00;99.90;;;;;;4175168;28;20284;-77
2021/10/03 07:09:11;;;;;;;9.35;5.18;;;17.00;99.90;;;;;;4156207;28;19916;-77
2021/10/03 07:11:11;;;;;;;8.52;5.05;;;17.00;99.90;;;;;;4171902;28;20513;-77
2021/10/03 07:13:12;;;;;;;10.07;4.63;;;17.00;99.90;;;;;;4173335;28;20040;-77
2021/10/03 07:15:13;;;;;;;7.82;5.05;;;17.10;99.90;;;;;;4170569;28;20068;-77
2021/10/03 07:17:13;;;;;;;8.15;5.32;;;17.10;99.90;;;;;;4175430;28;20032;-76
2021/10/03 07:19:14;;;;;;;7.50;5.13;;;17.00;99.90;;;;;;4176203;28;20037;-77
2021/10/03 07:21:17;;;;;;;8.45;5.13;;;17.00;99.90;;;;;;4175189;28;20843;-77
2021/10/03 07:23:17;;;;;;;;;;;17.00;99.90;;;;;;4175760;28;20087;-76
2021/10/03 07:25:18;;;;;;;8.65;5.22;;;17.00;99.90;;;;;;4177417;28;19913;-77
2021/10/03 07:27:21;;;;;;;8.82;4.95;;;17.00;99.90;;;;;;4176874;28;20043;-77
2021/10/03 07:29:22;;;;;;;8.90;5.30;;;17.00;99.90;;;;;;4176085;28;20052;-77
2021/10/03 07:31:23;;;;;;;8.52;4.97;;;17.00;99.90;;;;;;4175945;28;20041;-77
2021/10/03 07:33:24;;;;;;;11.55;5.10;;;17.00;99.90;;;;;;4175083;28;20044;-77
2021/10/03 07:35:24;;;;;;;8.00;5.18;;;17.00;99.90;;;;;;4157829;28;20068;-77
2021/10/03 07:37:26;;;;;;;7.90;4.95;;;17.00;99.90;;;;;;4176529;28;20039;-77
2021/10/03 07:39:27;;;;;;;9.98;5.30;;;17.00;99.90;;;;;;4164820;28;20096;-73
2021/10/03 07:41:27;;;;;;;7.18;5.07;;;17.00;99.90;;;;;;4170584;28;20044;-74
2021/10/03 07:43:28;;;;;;;10.82;5.88;;;17.00;99.90;;;;;;4187977;28;20037;-74
2021/10/03 07:45:29;;;;;;;10.23;5.40;;;17.00;99.90;;;;;;4168459;28;20134;-73
2021/10/03 07:47:29;;;;;;;9.38;5.22;;;17.00;99.90;;;;;;4172854;28;20044;-74
2021/10/03 07:49:30;;;;;;;6.93;5.20;;;17.10;99.90;;;;;;4174376;28;20029;-74
2021/10/03 07:51:30;;;;;;;8.15;5.05;;;17.00;99.90;;;;;;4170119;28;20430;-73
2021/10/03 07:53:31;;;;;;;6.82;4.68;;;17.10;99.90;;;;;;4174034;28;20037;-73
2021/10/03 07:55:32;;;;;;;8.73;5.32;;;17.00;99.90;;;;;;4167722;28;20089;-74
2021/10/03 07:57:32;;;;;;;9.75;5.38;;;17.10;99.90;;;;;;4172880;28;20040;-73
2021/10/03 07:59:33;;;;;;;10.93;5.40;;;17.10;99.90;;;;;;4175113;28;20056;-74
2021/10/03 08:01:33;;;;;;;8.32;5.10;;;17.10;99.90;;;;;;4175202;28;20124;-73
2021/10/03 08:03:34;;;;;;;7.00;5.15;;;17.10;99.90;;;;;;4174815;28;20037;-73
2021/10/03 08:05:35;;;;;;;8.25;4.78;;;17.10;99.90;;;;;;4174384;28;20114;-73
2021/10/03 08:07:36;;;;;;;9.60;5.85;;;17.10;99.90;;;;;;4175644;28;20047;-74
2021/10/03 08:09:36;;;;;;;7.70;5.05;;;17.10;99.90;;;;;;4175547;28;20029;-73
2021/10/03 08:11:37;;;;;;;8.60;5.00;;;17.10;99.90;;;;;;4174671;28;20033;-74
2021/10/03 08:13:39;;;;;;;12.30;5.03;;;17.10;99.90;;;;;;4174195;28;20037;-74
2021/10/03 08:15:41;;;;;;;6.85;5.10;;;17.10;99.90;;;;;;4175448;28;20120;-74
2021/10/03 08:17:42;;;;;;;18.88;5.53;;;17.20;99.90;;;;;;4174562;28;20052;-74
2021/10/03 08:19:42;;;;;;;6.85;4.75;;;17.10;99.90;;;;;;4173662;28;20091;-74
2021/10/03 08:21:43;;;;;;;7.78;4.78;;;17.20;99.90;;;;;;4174788;28;20044;-73
2021/10/03 08:23:44;;;;;;;7.45;4.80;;;17.20;99.90;;;;;;4173539;28;20036;-73
2021/10/03 08:25:45;;;;;;;10.82;5.32;;;17.20;99.90;;;;;;4173049;28;20090;-74
2021/10/03 08:27:46;;;;;;;8.60;5.07;;;17.20;99.90;;;;;;4173693;28;20091;-74
2021/10/03 08:29:47;;;;;;;8.18;5.38;;;17.20;99.90;;;;;;4174692;28;20033;-73
2021/10/03 08:31:47;;;;;;;7.32;4.85;;;17.20;99.90;;;;;;4174602;28;20476;-73
2021/10/03 08:33:48;;;;;;;7.32;5.30;;;17.20;99.90;;;;;;4172527;28;20087;-73
2021/10/03 08:35:48;;;;;;;8.52;4.90;;;17.20;99.90;;;;;;4173569;28;20108;-74
2021/10/03 08:37:49;;;;;;;9.00;5.25;;;17.20;99.90;;;;;;4171732;28;20029;-74
2021/10/03 08:39:52;;;;;;;7.90;4.82;;;17.20;99.90;;;;;;4167336;28;20042;-74
2021/10/03 08:41:53;;;;;;;8.35;4.80;;;17.20;99.90;;;;;;4174258;28;20127;-74
2021/10/03 08:43:55;;;;;;;8.30;4.47;;;17.20;99.90;;;;;;4173849;28;20065;-74
2021/10/03 08:45:57;;;;;;;9.70;4.75;;;17.20;99.90;;;;;;4174732;28;20107;-74
2021/10/03 08:47:59;;;;;;;9.25;4.82;;;17.20;99.90;;;;;;4174288;28;20112;-74
2021/10/03 08:50:02;;;;;;;9.57;4.80;;;17.30;99.90;;;;;;4174387;28;20167;-74
2021/10/03 08:52:04;;;;;;;7.95;4.93;;;17.30;99.90;;;;;;4171499;28;20493;-74
2021/10/03 08:54:05;;;;;;;5.63;4.05;;;17.30;99.90;;;;;;4157642;28;20036;-74
2021/10/03 08:56:05;;;;;;;8.48;4.85;;;17.30;99.90;;;;;;4171328;28;20053;-74
2021/10/03 08:58:06;;;;;;;6.47;4.63;;;17.30;99.90;;;;;;4173047;28;20431;-74
2021/10/03 09:00:22;;;;;;;7.55;5.35;;;17.30;99.90;;;;;;4171987;28;20026;-74
2021/10/03 09:02:22;;;;;;;8.40;5.50;;;17.30;99.90;;;;;;4173153;28;20033;-74
2021/10/03 09:04:50;;;;;;;8.27;4.75;;;17.30;99.90;;;;;;4174312;28;20033;-73
2021/10/03 09:07:07;;;;;;;5.85;4.53;;;17.30;99.90;;;;;;4146397;28;20037;-74
2021/10/03 09:09:08;;;;;;;7.15;4.97;;;17.30;99.90;;;;;;4173565;28;20040;-74
2021/10/03 09:11:11;;;;;;;9.25;5.05;;;17.30;99.90;;;;;;4173935;28;20465;-74
2021/10/03 09:13:12;;;;;;;;;;;17.30;99.90;;;;;;4172256;28;20501;-73
2021/10/03 09:15:18;;;;;;;7.07;4.72;;;17.30;99.90;;;;;;4170141;28;19916;-74
2021/10/03 09:17:19;;;;;;;6.82;5.03;;;17.30;99.90;;;;;;4172721;28;20075;-74
2021/10/03 09:19:20;;;;;;;6.07;4.70;;;17.30;99.90;;;;;;4155291;28;20537;-74
2021/10/03 09:21:30;;;;;;;7.57;5.07;;;17.30;99.90;;;;;;4170496;28;20068;-74
2021/10/03 09:23:31;;;;;;;9.38;5.60;;;17.30;99.90;;;;;;4155563;28;20025;-73
2021/10/03 09:25:47;;;;;;;11.48;4.78;;;17.30;99.90;;;;;;4171490;28;20037;-73
2021/10/03 09:27:48;;;;;;;7.25;5.20;;;17.40;99.90;;;;;;4171969;28;20036;-73
2021/10/03 09:29:48;;;;;;;8.15;4.60;;;17.30;99.90;;;;;;4171838;28;20132;-74
2021/10/03 09:32:29;;;;;;;10.05;4.28;;;17.40;99.90;;;;;;4172691;28;20033;-74
2021/10/03 09:34:31;;;;;;;5.85;4.57;;;17.30;99.90;;;;;;4104204;28;20563;-73
2021/10/03 09:36:34;;;;;;;9.30;5.55;;;17.40;99.90;;;;;;4118322;28;20388;-74
2021/10/03 09:38:46;;;;;;;6.60;4.20;;;17.30;99.90;;;;;;4121544;28;20379;-74
2021/10/03 09:41:02;;;;;;;6.90;4.75;;;17.40;99.90;;;;;;4170976;28;20501;-74
2021/10/03 09:43:03;;;;;;;7.07;4.18;;;17.40;99.90;;;;;;4171984;28;20040;-74
2021/10/03 09:45:21;;;;;;;7.22;4.70;;;17.40;99.90;;;;;;4171846;28;20124;-73
2021/10/03 09:47:25;;;;;;;5.72;4.03;;;17.40;99.90;;;;;;4176111;28;20044;-74
2021/10/03 09:49:25;;;;;;;6.70;4.85;;;17.40;99.90;;;;;;4179743;28;20149;-73
2021/10/03 09:51:26;;;;;;;6.18;4.75;;;17.40;99.90;;;;;;4175870;28;20044;-74
2021/10/03 09:53:27;;;;;;;6.88;4.90;;;17.40;99.90;;;;;;4174570;28;20535;-73
2021/10/03 09:55:28;;;;;;;8.02;5.40;;;17.40;99.90;;;;;;4175339;28;20044;-74
2021/10/03 09:57:29;;;;;;;5.03;3.97;;;17.50;99.90;;;;;;4177197;28;20037;-73
2021/10/03 09:59:30;;;;;;;8.70;5.05;;;17.50;99.90;;;;;;4174644;28;20040;-73
2021/10/03 10:01:32;;;;;;;10.45;4.53;;;17.50;99.90;;;;;;4171037;28;20029;-73
2021/10/03 10:03:37;;;;;;;6.68;4.35;;;17.50;99.90;;;;;;4173396;28;20043;-73
2021/10/03 10:05:38;;;;;;;8.82;4.90;;;17.50;99.90;;;;;;4170266;28;20036;-73
2021/10/03 10:07:41;;;;;;;5.18;3.67;;;17.50;99.90;;;;;;4170844;28;20316;-73
2021/10/03 10:09:45;;;;;;;5.18;3.95;;;17.50;99.90;;;;;;4173040;28;20029;-73
2021/10/03 10:11:46;;;;;;;5.70;4.55;;;17.60;99.90;;;;;;4170527;28;20450;-73
2021/10/03 10:13:55;;;;;;;5.70;4.00;;;17.60;99.90;;;;;;4172446;28;20068;-73
2021/10/03 10:16:27;;;;;;;7.32;4.55;;;17.60;99.90;;;;;;4170810;28;20041;-73
2021/10/03 10:18:28;;;;;;;8.73;4.78;;;17.60;99.90;;;;;;4138020;28;20034;-74
2021/10/03 10:20:33;;;;;;;8.52;4.63;;;17.60;99.90;;;;;;4156336;28;20282;-73
2021/10/03 10:22:35;;;;;;;10.20;4.78;;;17.70;99.90;;;;;;4152515;28;20033;-73
2021/10/03 10:24:49;;;;;;;8.32;4.47;;;17.70;99.90;;;;;;4154469;28;20068;-73
2021/10/03 10:26:49;;;;;;;11.77;4.90;;;17.70;99.90;;;;;;4155162;28;20108;-74
2021/10/03 10:28:50;;;;;;;6.60;4.20;;;17.70;99.90;;;;;;4155737;28;20736;-74
2021/10/03 10:31:05;;;;;;;5.25;3.95;;;17.80;99.90;;;;;;4155736;28;20032;-74
2021/10/03 10:33:10;;;;;;;6.35;4.30;;;17.80;99.90;;;;;;4172399;28;20056;-73
2021/10/03 10:35:14;;;;;;;5.90;3.85;;;17.80;99.90;;;;;;4164338;28;20025;-73